createdAt,value
2018-07-05T00:02:46.962Z,99067.28
2018-07-05T00:09:15.548Z,99064.80
2018-07-05T00:15:43.865Z,99062.63
2018-07-05T00:22:12.740Z,99065.03
2018-07-05T00:28:40.986Z,99068.00
2018-07-05T00:35:09.616Z,99066.62
2018-07-05T00:41:38.025Z,99066.09
2018-07-05T00:48:06.792Z,99068.82
2018-07-05T00:54:35.232Z,99062.78
2018-07-05T01:01:03.839Z,99063.84
2018-07-05T01:07:32.197Z,99061.75
2018-07-05T01:14:00.847Z,99052.70
2018-07-05T01:20:29.684Z,99058.73
2018-07-05T01:26:58.213Z,99064.67
2018-07-05T01:33:26.853Z,99063.04
2018-07-05T01:39:55.595Z,99079.56
2018-07-05T01:46:24.161Z,99082.33
2018-07-05T01:52:53.035Z,99081.50
2018-07-05T01:59:15.752Z,99078.56
2018-07-05T02:05:44.215Z,99065.44
2018-07-05T02:12:12.837Z,99064.86
2018-07-05T02:18:41.548Z,99070.91
2018-07-05T02:25:10.049Z,99065.66
2018-07-05T02:31:38.800Z,99061.66
2018-07-05T02:38:12.476Z,99060.64
2018-07-05T02:44:41.482Z,99063.41
2018-07-05T02:51:09.928Z,99075.96
2018-07-05T02:57:38.383Z,99076.23
2018-07-05T03:04:06.930Z,99074.62
2018-07-05T03:10:35.369Z,99068.92
2018-07-05T03:17:04.196Z,99084.81
2018-07-05T03:23:32.780Z,99078.30
2018-07-05T03:30:01.411Z,99072.28
2018-07-05T03:36:30.016Z,99085.64
2018-07-05T03:42:58.603Z,99081.95
2018-07-05T03:49:27.231Z,99083.67
2018-07-05T03:55:55.665Z,99078.14
2018-07-05T04:02:24.214Z,99088.92
2018-07-05T04:08:52.378Z,99078.25
2018-07-05T04:15:21.072Z,99091.73
2018-07-05T04:21:49.735Z,99079.39
2018-07-05T04:28:18.492Z,99091.19
2018-07-05T04:34:47.114Z,99080.76
2018-07-05T04:41:15.586Z,99096.73
2018-07-05T04:47:44.093Z,99096.08
2018-07-05T04:54:12.690Z,99090.83
2018-07-05T05:00:41.408Z,99094.42
2018-07-05T05:07:10.096Z,99094.22
2018-07-05T05:13:38.508Z,99091.02
2018-07-05T05:20:07.126Z,99089.98
2018-07-05T05:26:35.866Z,99092.77
2018-07-05T05:33:04.430Z,99093.90
2018-07-05T05:39:32.799Z,99103.79
2018-07-05T05:46:01.558Z,99103.53
2018-07-05T05:52:30.121Z,99110.34
2018-07-05T05:58:58.712Z,99113.89
2018-07-05T06:05:27.229Z,99122.36
2018-07-05T06:11:56.224Z,99122.03
2018-07-05T06:18:24.470Z,99111.51
2018-07-05T06:24:53.700Z,99104.08
2018-07-05T06:31:22.531Z,99100.88
2018-07-05T06:37:51.785Z,99099.23
2018-07-05T06:44:20.684Z,99099.17
2018-07-05T06:50:49.386Z,99092.64
2018-07-05T06:57:18.013Z,99097.42
2018-07-05T07:03:46.865Z,99101.34
2018-07-05T07:10:15.367Z,99100.11
2018-07-05T07:16:43.899Z,99111.80
2018-07-05T07:23:12.573Z,99099.19
2018-07-05T07:29:41.395Z,99099.55
2018-07-05T07:36:09.959Z,99092.94
2018-07-05T07:42:20.081Z,99088.25
2018-07-05T07:48:23.997Z,99085.78
2018-07-05T07:54:27.542Z,99070.15
2018-07-05T08:00:31.136Z,99078.78
2018-07-05T08:06:34.687Z,99072.55
2018-07-05T08:12:38.246Z,99067.39
2018-07-05T08:18:41.808Z,99061.32
2018-07-05T08:24:45.344Z,99063.83
2018-07-05T08:30:49.476Z,99064.35
2018-07-05T08:36:53.640Z,99070.02
2018-07-05T08:42:57.166Z,99066.49
2018-07-05T08:49:00.738Z,99059.59
2018-07-05T08:55:04.286Z,99045.22
2018-07-05T09:01:07.833Z,99049.86
2018-07-05T09:07:11.381Z,99044.77
2018-07-05T09:13:15.107Z,99044.64
2018-07-05T09:19:18.651Z,99051.22
2018-07-05T09:25:22.297Z,99047.78
2018-07-05T09:31:26.082Z,99042.60
2018-07-05T09:37:29.719Z,99036.58
2018-07-05T09:43:33.263Z,99038.60
2018-07-05T09:49:36.792Z,99036.75
2018-07-05T09:55:40.326Z,99030.94
2018-07-05T10:01:43.947Z,99026.42
2018-07-05T10:07:47.522Z,99017.75
2018-07-05T10:13:51.397Z,99028.57
2018-07-05T10:19:54.874Z,99029.16
2018-07-05T10:25:58.425Z,99018.75
2018-07-05T10:32:20.799Z,99017.23
2018-07-05T10:38:30.737Z,99001.73
2018-07-05T10:44:53.095Z,99010.39
2018-07-05T10:51:22.317Z,99004.80
2018-07-05T10:57:50.731Z,99004.25
2018-07-05T11:04:19.383Z,98993.87
2018-07-05T11:10:47.917Z,98992.82
2018-07-05T11:17:16.419Z,98999.83
2018-07-05T11:23:44.787Z,98996.70
2018-07-05T11:30:13.328Z,98986.16
2018-07-05T11:36:41.938Z,98982.81
2018-07-05T11:43:10.622Z,98973.51
2018-07-05T11:49:39.276Z,98973.41
2018-07-05T11:56:07.929Z,98976.63
2018-07-05T12:02:36.613Z,98967.41
2018-07-05T12:09:06.295Z,98968.88
2018-07-05T12:15:34.790Z,98966.44
2018-07-05T12:22:03.240Z,98955.95
2018-07-05T12:28:31.998Z,98968.87
2018-07-05T12:35:00.390Z,98966.34
2018-07-05T12:41:28.999Z,98965.80
2018-07-05T12:47:57.405Z,98970.94
2018-07-05T12:54:26.057Z,98964.03
2018-07-05T13:00:54.523Z,98967.88
2018-07-05T13:07:23.184Z,98973.88
2018-07-05T13:13:52.090Z,98968.73
2018-07-05T13:20:20.421Z,98959.88
2018-07-05T13:26:48.969Z,98967.61
2018-07-05T13:33:17.713Z,98962.24
2018-07-05T13:39:46.602Z,98959.03
2018-07-05T13:46:15.292Z,98950.14
2018-07-05T13:52:43.809Z,98955.89
2018-07-05T13:59:12.348Z,98963.75
2018-07-05T14:05:40.856Z,98973.14
2018-07-05T14:12:09.572Z,98958.76
2018-07-05T14:18:38.143Z,98963.50
2018-07-05T14:25:06.954Z,98971.55
2018-07-05T14:31:35.335Z,98976.06
2018-07-05T14:38:03.575Z,98972.20
2018-07-05T14:44:31.989Z,98969.47
2018-07-05T14:51:00.353Z,98974.75
2018-07-05T14:57:28.973Z,98980.21
2018-07-05T15:03:57.333Z,98994.06
2018-07-05T15:10:25.974Z,98992.70
2018-07-05T15:16:54.537Z,98987.80
2018-07-05T15:23:23.326Z,98986.75
2018-07-05T15:29:51.773Z,98985.54
2018-07-05T15:36:20.837Z,98987.73
2018-07-05T15:42:49.275Z,98985.34
2018-07-05T15:49:17.857Z,98987.31
2018-07-05T15:55:46.379Z,98976.95
2018-07-05T16:02:14.914Z,98976.06
2018-07-05T16:08:43.469Z,98971.95
2018-07-05T16:15:11.952Z,98972.61
2018-07-05T16:21:40.469Z,98967.22
2018-07-05T16:28:09.017Z,98979.72
2018-07-05T16:34:37.703Z,98973.41
2018-07-05T16:41:06.305Z,98966.81
2018-07-05T16:47:34.741Z,98962.57
2018-07-05T16:54:03.200Z,98963.09
2018-07-05T17:00:32.047Z,98965.30
2018-07-05T17:07:00.675Z,98967.43
2018-07-05T17:13:29.206Z,98967.45
2018-07-05T17:19:58.230Z,98966.52
2018-07-05T17:26:27.010Z,98979.27
2018-07-05T17:32:55.595Z,98988.88
2018-07-05T17:39:24.268Z,98994.38
2018-07-05T17:45:53.320Z,99000.69
2018-07-05T17:52:22.117Z,99001.34
2018-07-05T17:58:51.397Z,99006.48
2018-07-05T18:05:19.922Z,99021.88
2018-07-05T18:11:48.476Z,99032.81
2018-07-05T18:18:17.136Z,99048.20
2018-07-05T18:24:45.700Z,99054.31
2018-07-05T18:31:14.307Z,99061.53
2018-07-05T18:37:42.892Z,99061.52
2018-07-05T18:44:11.414Z,99067.04
2018-07-05T18:50:39.962Z,99073.02
2018-07-05T18:57:08.575Z,99075.78
2018-07-05T19:03:36.911Z,99081.88
2018-07-05T19:10:05.552Z,99084.43
2018-07-05T19:16:34.149Z,99102.79
2018-07-05T19:23:02.496Z,99100.64
2018-07-05T19:29:31.181Z,99106.50
2018-07-05T19:35:59.971Z,99117.62
2018-07-05T19:42:29.222Z,99133.45
2018-07-05T19:48:57.972Z,99149.61
2018-07-05T19:55:26.626Z,99162.80
2018-07-05T20:01:55.168Z,99164.04
2018-07-05T20:08:23.886Z,99178.14
2018-07-05T20:14:52.381Z,99185.19
2018-07-05T20:21:21.321Z,99189.69
2018-07-05T20:27:49.856Z,99191.80
2018-07-05T20:34:18.381Z,99209.28
2018-07-05T20:40:46.889Z,99226.83
2018-07-05T20:47:15.373Z,99235.03
2018-07-05T20:53:43.904Z,99241.06
2018-07-05T21:00:12.344Z,99252.22
2018-07-05T21:06:41.055Z,99252.45
2018-07-05T21:13:09.645Z,99257.62
2018-07-05T21:19:38.196Z,99267.98
2018-07-05T21:26:06.920Z,99275.26
2018-07-05T21:32:35.285Z,99285.03
2018-07-05T21:38:57.807Z,99288.78
2018-07-05T21:45:26.068Z,99293.81
2018-07-05T21:51:54.474Z,99290.22
2018-07-05T21:58:23.311Z,99289.73
2018-07-05T22:04:52.037Z,99292.45
2018-07-05T22:11:20.909Z,99309.63
2018-07-05T22:17:54.978Z,99312.53
2018-07-05T22:24:28.531Z,99320.20
2018-07-05T22:31:02.388Z,99331.53
2018-07-05T22:37:30.945Z,99327.23
2018-07-05T22:50:21.389Z,99338.60
2018-07-05T22:56:50.099Z,99352.19
2018-07-05T23:03:18.659Z,99342.75
2018-07-05T23:09:47.683Z,99352.86
2018-07-05T23:16:16.196Z,99349.08
2018-07-05T23:22:44.721Z,99347.23
2018-07-05T23:29:13.109Z,99348.40
2018-07-05T23:35:41.623Z,99345.14
2018-07-05T23:42:10.313Z,99354.77
2018-07-05T23:48:38.735Z,99359.45
2018-07-05T23:55:07.257Z,99363.61
